PKO YSHK-YJUR
Flight info
| Callsign | PKO |
|---|---|
| Flight time | 1h 39m |
| Altitude | 7000 |
| Route | VIBID W294 GEL W14 BUVEL |
| Aircraft | SR22/L-SDGRY/S |
Departure
| Time | 2026-04-30 02:55 |
|---|---|
| Airport | Shark Bay Airport (YSHK) |
Arrival
| Time | 2026-04-30 04:34 |
|---|---|
| Airport | Jurien Bay Airport (YJUR) |
| Time | Latitude | Longitude | Altitude | Speed | Heading |
|---|---|---|---|---|---|
| 2026-04-30 02:45 | -25.88809 | 113.57695 | 133 ft | 0 kts | 265° |
| 2026-04-30 02:52 | -25.88810 | 113.57692 | 133 ft | 2 kts | 261° |
| 2026-04-30 02:52 | -25.88831 | 113.57686 | 133 ft | 4 kts | 181° |
| 2026-04-30 02:52 | -25.88872 | 113.57682 | 133 ft | 7 kts | 197° |
| 2026-04-30 02:53 | -25.88893 | 113.57620 | 134 ft | 12 kts | 258° |
| 2026-04-30 02:53 | -25.88895 | 113.57593 | 135 ft | 7 kts | 275° |
| 2026-04-30 02:53 | -25.88896 | 113.57581 | 135 ft | 1 kts | 258° |
| 2026-04-30 02:53 | -25.88931 | 113.57559 | 135 ft | 0 kts | 189° |
| 2026-04-30 02:54 | -25.88970 | 113.57561 | 136 ft | 29 kts | 178° |
| 2026-04-30 02:54 | -25.89400 | 113.57572 | 176 ft | 84 kts | 175° |
| 2026-04-30 02:54 | -25.90007 | 113.57586 | 454 ft | 91 kts | 176° |
| 2026-04-30 02:54 | -25.90718 | 113.57596 | 617 ft | 111 kts | 173° |
| 2026-04-30 02:55 | -25.91497 | 113.57846 | 803 ft | 122 kts | 148° |
| 2026-04-30 02:55 | -25.92171 | 113.58403 | 1126 ft | 121 kts | 137° |
| 2026-04-30 02:55 | -25.92744 | 113.59077 | 1461 ft | 118 kts | 134° |
| 2026-04-30 02:55 | -25.93316 | 113.59722 | 1771 ft | 117 kts | 139° |
| 2026-04-30 02:56 | -25.94033 | 113.60145 | 2060 ft | 118 kts | 157° |
| 2026-04-30 02:56 | -25.94789 | 113.60470 | 2392 ft | 116 kts | 159° |
| 2026-04-30 02:56 | -25.95557 | 113.60779 | 2691 ft | 117 kts | 160° |
| 2026-04-30 02:56 | -25.96325 | 113.61079 | 2978 ft | 118 kts | 161° |
| 2026-04-30 02:57 | -25.97100 | 113.61377 | 3277 ft | 118 kts | 161° |
| 2026-04-30 02:57 | -25.98117 | 113.61764 | 3604 ft | 123 kts | 162° |
| 2026-04-30 02:57 | -25.98934 | 113.62073 | 3861 ft | 125 kts | 162° |
| 2026-04-30 02:57 | -25.99767 | 113.62388 | 4111 ft | 127 kts | 162° |
| 2026-04-30 02:58 | -26.00616 | 113.62709 | 4352 ft | 130 kts | 163° |
| 2026-04-30 02:58 | -26.01485 | 113.63037 | 4592 ft | 132 kts | 163° |
| 2026-04-30 02:58 | -26.02365 | 113.63369 | 4822 ft | 134 kts | 163° |
| 2026-04-30 02:58 | -26.03255 | 113.63705 | 5055 ft | 136 kts | 163° |
| 2026-04-30 02:59 | -26.04153 | 113.64045 | 5284 ft | 137 kts | 163° |
| 2026-04-30 02:59 | -26.06751 | 113.65026 | 5871 ft | 143 kts | 163° |
| 2026-04-30 03:00 | -26.07711 | 113.65388 | 6056 ft | 146 kts | 163° |
| 2026-04-30 03:00 | -26.08679 | 113.65755 | 6262 ft | 148 kts | 164° |
| 2026-04-30 03:00 | -26.09659 | 113.66125 | 6468 ft | 148 kts | 164° |
| 2026-04-30 03:00 | -26.10626 | 113.66491 | 6693 ft | 146 kts | 164° |
| 2026-04-30 03:01 | -26.11595 | 113.66857 | 6890 ft | 146 kts | 164° |
| 2026-04-30 03:01 | -26.12585 | 113.67232 | 6997 ft | 153 kts | 164° |
| 2026-04-30 03:01 | -26.13636 | 113.67629 | 7011 ft | 163 kts | 164° |
| 2026-04-30 03:01 | -26.14755 | 113.68052 | 7010 ft | 171 kts | 164° |
| 2026-04-30 03:02 | -26.15903 | 113.68487 | 7008 ft | 175 kts | 163° |
| 2026-04-30 03:02 | -26.17092 | 113.68937 | 7004 ft | 178 kts | 163° |
| 2026-04-30 03:02 | -26.18282 | 113.69388 | 7008 ft | 180 kts | 163° |
| 2026-04-30 03:02 | -26.19490 | 113.69845 | 7011 ft | 181 kts | 163° |
| 2026-04-30 03:03 | -26.20696 | 113.70302 | 7014 ft | 182 kts | 163° |
| 2026-04-30 03:03 | -26.23126 | 113.71223 | 7016 ft | 182 kts | 164° |
| 2026-04-30 03:03 | -26.24340 | 113.71683 | 7012 ft | 182 kts | 164° |
| 2026-04-30 03:04 | -26.25558 | 113.72145 | 7015 ft | 182 kts | 163° |
| 2026-04-30 03:04 | -26.26754 | 113.72599 | 7013 ft | 181 kts | 164° |
| 2026-04-30 03:04 | -26.27970 | 113.73060 | 7018 ft | 181 kts | 164° |
| 2026-04-30 03:04 | -26.29170 | 113.73515 | 7018 ft | 181 kts | 164° |
| 2026-04-30 03:05 | -26.30385 | 113.73976 | 7017 ft | 181 kts | 164° |
| 2026-04-30 03:05 | -26.31590 | 113.74434 | 7014 ft | 181 kts | 164° |
| 2026-04-30 03:05 | -26.32800 | 113.74893 | 7010 ft | 182 kts | 163° |
| 2026-04-30 03:05 | -26.34000 | 113.75349 | 7014 ft | 181 kts | 164° |
| 2026-04-30 03:06 | -26.35208 | 113.75808 | 7014 ft | 181 kts | 164° |
| 2026-04-30 03:06 | -26.36416 | 113.76266 | 7011 ft | 181 kts | 164° |
| 2026-04-30 03:06 | -26.37614 | 113.76721 | 7016 ft | 181 kts | 164° |
| 2026-04-30 03:06 | -26.38831 | 113.77183 | 7014 ft | 181 kts | 164° |
| 2026-04-30 03:07 | -26.40031 | 113.77639 | 7012 ft | 182 kts | 163° |
| 2026-04-30 03:07 | -26.41257 | 113.78105 | 7012 ft | 182 kts | 163° |
| 2026-04-30 03:07 | -26.42462 | 113.78563 | 7012 ft | 182 kts | 163° |
| 2026-04-30 03:07 | -26.43679 | 113.79026 | 7011 ft | 182 kts | 163° |
| 2026-04-30 03:08 | -26.44887 | 113.79486 | 7011 ft | 181 kts | 163° |
| 2026-04-30 03:08 | -26.46097 | 113.79946 | 7014 ft | 182 kts | 163° |
| 2026-04-30 03:08 | -26.47309 | 113.80408 | 7014 ft | 182 kts | 163° |
| 2026-04-30 03:08 | -26.48517 | 113.80868 | 7009 ft | 182 kts | 163° |
| 2026-04-30 03:09 | -26.49732 | 113.81331 | 7008 ft | 182 kts | 163° |
| 2026-04-30 03:09 | -26.50935 | 113.81789 | 7014 ft | 182 kts | 163° |
| 2026-04-30 03:09 | -26.52149 | 113.82252 | 7017 ft | 181 kts | 164° |
| 2026-04-30 03:09 | -26.53352 | 113.82710 | 7017 ft | 181 kts | 163° |
| 2026-04-30 03:10 | -26.54569 | 113.83174 | 7013 ft | 181 kts | 163° |
| 2026-04-30 03:10 | -26.55771 | 113.83632 | 7013 ft | 181 kts | 164° |
| 2026-04-30 03:10 | -26.56986 | 113.84095 | 7017 ft | 180 kts | 164° |
| 2026-04-30 03:10 | -26.58189 | 113.84554 | 7018 ft | 181 kts | 163° |
| 2026-04-30 03:11 | -26.59396 | 113.85015 | 7019 ft | 181 kts | 164° |
| 2026-04-30 03:11 | -26.60601 | 113.85475 | 7024 ft | 181 kts | 163° |
| 2026-04-30 03:11 | -26.61806 | 113.85935 | 7020 ft | 181 kts | 163° |
| 2026-04-30 03:11 | -26.63018 | 113.86397 | 7025 ft | 181 kts | 163° |
| 2026-04-30 03:12 | -26.64220 | 113.86856 | 7021 ft | 182 kts | 163° |
| 2026-04-30 03:12 | -26.65448 | 113.87325 | 7021 ft | 182 kts | 163° |
| 2026-04-30 03:12 | -26.66651 | 113.87785 | 7019 ft | 182 kts | 163° |
| 2026-04-30 03:12 | -26.67884 | 113.88256 | 7025 ft | 182 kts | 163° |
| 2026-04-30 03:13 | -26.69084 | 113.88715 | 7027 ft | 181 kts | 163° |
| 2026-04-30 03:13 | -26.70295 | 113.89178 | 7025 ft | 181 kts | 163° |
| 2026-04-30 03:13 | -26.71497 | 113.89637 | 7025 ft | 181 kts | 163° |
| 2026-04-30 03:13 | -26.72705 | 113.90099 | 7024 ft | 181 kts | 163° |
| 2026-04-30 03:14 | -26.73908 | 113.90559 | 7023 ft | 181 kts | 164° |
| 2026-04-30 03:14 | -26.75116 | 113.91022 | 7018 ft | 181 kts | 163° |
| 2026-04-30 03:14 | -26.76325 | 113.91485 | 7014 ft | 181 kts | 163° |
| 2026-04-30 03:14 | -26.77525 | 113.91944 | 7017 ft | 181 kts | 163° |
| 2026-04-30 03:15 | -26.78732 | 113.92406 | 7020 ft | 181 kts | 163° |
| 2026-04-30 03:15 | -26.79934 | 113.92866 | 7018 ft | 181 kts | 163° |
| 2026-04-30 03:15 | -26.81142 | 113.93329 | 7014 ft | 181 kts | 163° |
| 2026-04-30 03:15 | -26.82338 | 113.93788 | 7019 ft | 181 kts | 163° |
| 2026-04-30 03:16 | -26.83545 | 113.94250 | 7018 ft | 180 kts | 163° |
| 2026-04-30 03:16 | -26.84742 | 113.94709 | 7019 ft | 180 kts | 163° |
| 2026-04-30 03:16 | -26.85938 | 113.95168 | 7018 ft | 180 kts | 163° |
| 2026-04-30 03:16 | -26.87130 | 113.95625 | 7018 ft | 180 kts | 163° |
| 2026-04-30 03:17 | -26.88326 | 113.96084 | 7018 ft | 180 kts | 164° |
| 2026-04-30 03:17 | -26.89534 | 113.96547 | 7011 ft | 180 kts | 163° |
| 2026-04-30 03:17 | -26.90731 | 113.97006 | 7018 ft | 180 kts | 163° |
| 2026-04-30 03:17 | -26.91926 | 113.97465 | 7023 ft | 180 kts | 163° |
| 2026-04-30 03:18 | -26.93120 | 113.97924 | 7021 ft | 180 kts | 163° |
| 2026-04-30 03:18 | -26.94330 | 113.98388 | 7022 ft | 180 kts | 163° |
| 2026-04-30 03:18 | -26.95523 | 113.98847 | 7019 ft | 180 kts | 163° |
| 2026-04-30 03:18 | -26.96728 | 113.99309 | 7021 ft | 180 kts | 163° |
| 2026-04-30 03:19 | -26.97918 | 113.99766 | 7023 ft | 180 kts | 163° |
| 2026-04-30 03:19 | -26.99126 | 114.00230 | 7025 ft | 180 kts | 163° |
| 2026-04-30 03:19 | -27.00320 | 114.00690 | 7018 ft | 180 kts | 163° |
| 2026-04-30 03:19 | -27.01520 | 114.01150 | 7017 ft | 180 kts | 163° |
| 2026-04-30 03:20 | -27.02711 | 114.01609 | 7018 ft | 179 kts | 163° |
| 2026-04-30 03:20 | -27.03909 | 114.02068 | 7022 ft | 180 kts | 163° |
| 2026-04-30 03:20 | -27.05105 | 114.02529 | 7018 ft | 180 kts | 163° |
| 2026-04-30 03:20 | -27.06302 | 114.02991 | 7020 ft | 180 kts | 163° |
| 2026-04-30 03:21 | -27.07498 | 114.03451 | 7016 ft | 180 kts | 163° |
| 2026-04-30 03:21 | -27.08691 | 114.03910 | 7017 ft | 180 kts | 163° |
| 2026-04-30 03:21 | -27.09891 | 114.04373 | 7016 ft | 180 kts | 163° |
| 2026-04-30 03:21 | -27.11078 | 114.04832 | 7017 ft | 180 kts | 163° |
| 2026-04-30 03:22 | -27.12281 | 114.05297 | 7018 ft | 179 kts | 163° |
| 2026-04-30 03:22 | -27.13479 | 114.05756 | 7017 ft | 180 kts | 163° |
| 2026-04-30 03:22 | -27.14678 | 114.06219 | 7017 ft | 180 kts | 163° |
| 2026-04-30 03:22 | -27.15871 | 114.06678 | 7017 ft | 179 kts | 163° |
| 2026-04-30 03:23 | -27.17066 | 114.07138 | 7016 ft | 179 kts | 163° |
| 2026-04-30 03:23 | -27.18258 | 114.07596 | 7017 ft | 179 kts | 163° |
| 2026-04-30 03:23 | -27.19450 | 114.08059 | 7019 ft | 179 kts | 163° |
| 2026-04-30 03:23 | -27.20643 | 114.08519 | 7022 ft | 179 kts | 163° |
| 2026-04-30 03:24 | -27.21838 | 114.08981 | 7016 ft | 180 kts | 163° |
| 2026-04-30 03:24 | -27.23040 | 114.09445 | 7023 ft | 180 kts | 164° |
| 2026-04-30 03:24 | -27.24231 | 114.09904 | 7019 ft | 180 kts | 163° |
| 2026-04-30 03:24 | -27.25435 | 114.10369 | 7023 ft | 180 kts | 163° |
| 2026-04-30 03:25 | -27.26626 | 114.10830 | 7027 ft | 180 kts | 164° |
| 2026-04-30 03:25 | -27.27829 | 114.11295 | 7024 ft | 180 kts | 163° |
| 2026-04-30 03:25 | -27.29025 | 114.11756 | 7018 ft | 180 kts | 163° |
| 2026-04-30 03:25 | -27.30222 | 114.12219 | 7024 ft | 179 kts | 164° |
| 2026-04-30 03:26 | -27.31411 | 114.12679 | 7018 ft | 179 kts | 164° |
| 2026-04-30 03:26 | -27.32602 | 114.13141 | 7008 ft | 178 kts | 163° |
| 2026-04-30 03:26 | -27.33785 | 114.13599 | 7019 ft | 178 kts | 164° |
| 2026-04-30 03:26 | -27.34967 | 114.14056 | 7020 ft | 178 kts | 164° |
| 2026-04-30 03:27 | -27.36158 | 114.14517 | 7017 ft | 178 kts | 164° |
| 2026-04-30 03:27 | -27.37337 | 114.14973 | 7020 ft | 178 kts | 164° |
| 2026-04-30 03:27 | -27.38527 | 114.15433 | 7018 ft | 179 kts | 163° |
| 2026-04-30 03:27 | -27.39706 | 114.15891 | 7023 ft | 179 kts | 164° |
| 2026-04-30 03:28 | -27.40903 | 114.16355 | 7017 ft | 179 kts | 164° |
| 2026-04-30 03:28 | -27.42087 | 114.16812 | 7016 ft | 179 kts | 164° |
| 2026-04-30 03:28 | -27.43281 | 114.17275 | 7021 ft | 179 kts | 164° |
| 2026-04-30 03:28 | -27.44466 | 114.17735 | 7006 ft | 179 kts | 164° |
| 2026-04-30 03:29 | -27.45650 | 114.18193 | 7011 ft | 178 kts | 164° |
| 2026-04-30 03:29 | -27.46833 | 114.18652 | 7013 ft | 178 kts | 165° |
| 2026-04-30 03:29 | -27.48019 | 114.19114 | 7013 ft | 179 kts | 164° |
| 2026-04-30 03:29 | -27.49208 | 114.19577 | 7019 ft | 179 kts | 164° |
| 2026-04-30 03:30 | -27.50399 | 114.20039 | 7019 ft | 180 kts | 165° |
| 2026-04-30 03:30 | -27.51596 | 114.20502 | 7013 ft | 179 kts | 164° |
| 2026-04-30 03:30 | -27.52781 | 114.20961 | 7018 ft | 179 kts | 164° |
| 2026-04-30 03:30 | -27.53975 | 114.21424 | 7026 ft | 179 kts | 164° |
| 2026-04-30 03:31 | -27.55157 | 114.21885 | 7020 ft | 178 kts | 163° |
| 2026-04-30 03:31 | -27.56344 | 114.22347 | 7021 ft | 178 kts | 164° |
| 2026-04-30 03:31 | -27.57521 | 114.22804 | 7022 ft | 178 kts | 164° |
| 2026-04-30 03:31 | -27.58708 | 114.23266 | 7018 ft | 178 kts | 164° |
| 2026-04-30 03:32 | -27.59887 | 114.23726 | 7019 ft | 178 kts | 164° |
| 2026-04-30 03:32 | -27.61070 | 114.24186 | 7022 ft | 178 kts | 164° |
| 2026-04-30 03:32 | -27.62254 | 114.24645 | 7026 ft | 178 kts | 164° |
| 2026-04-30 03:32 | -27.63441 | 114.25107 | 7025 ft | 179 kts | 164° |
| 2026-04-30 03:33 | -27.64632 | 114.25570 | 7025 ft | 179 kts | 164° |
| 2026-04-30 03:33 | -27.65819 | 114.26033 | 7017 ft | 179 kts | 164° |
| 2026-04-30 03:33 | -27.67015 | 114.26497 | 7020 ft | 178 kts | 164° |
| 2026-04-30 03:33 | -27.68193 | 114.26956 | 7023 ft | 179 kts | 164° |
| 2026-04-30 03:34 | -27.69391 | 114.27423 | 7026 ft | 178 kts | 164° |
| 2026-04-30 03:34 | -27.70573 | 114.27881 | 7030 ft | 179 kts | 164° |
| 2026-04-30 03:34 | -27.71764 | 114.28346 | 7032 ft | 179 kts | 164° |
| 2026-04-30 03:34 | -27.72944 | 114.28805 | 7022 ft | 178 kts | 164° |
| 2026-04-30 03:35 | -27.74127 | 114.29268 | 7029 ft | 178 kts | 164° |
| 2026-04-30 03:35 | -27.75307 | 114.29729 | 7020 ft | 178 kts | 164° |
| 2026-04-30 03:35 | -27.76487 | 114.30189 | 7019 ft | 178 kts | 164° |
| 2026-04-30 03:35 | -27.77676 | 114.30654 | 7003 ft | 179 kts | 164° |
| 2026-04-30 03:36 | -27.78862 | 114.31118 | 6997 ft | 179 kts | 164° |
| 2026-04-30 03:36 | -27.80051 | 114.31582 | 7004 ft | 179 kts | 164° |
| 2026-04-30 03:36 | -27.81234 | 114.32044 | 7000 ft | 179 kts | 164° |
| 2026-04-30 03:36 | -27.82425 | 114.32509 | 7000 ft | 179 kts | 164° |
| 2026-04-30 03:37 | -27.83604 | 114.32968 | 7000 ft | 178 kts | 164° |
| 2026-04-30 03:37 | -27.84791 | 114.33433 | 6999 ft | 178 kts | 164° |
| 2026-04-30 03:37 | -27.85971 | 114.33895 | 6996 ft | 178 kts | 164° |
| 2026-04-30 03:37 | -27.87157 | 114.34357 | 7004 ft | 177 kts | 164° |
| 2026-04-30 03:38 | -27.88328 | 114.34815 | 7007 ft | 177 kts | 164° |
| 2026-04-30 03:38 | -27.89510 | 114.35276 | 6994 ft | 177 kts | 164° |
| 2026-04-30 03:38 | -27.90683 | 114.35735 | 6995 ft | 177 kts | 164° |
| 2026-04-30 03:38 | -27.91860 | 114.36196 | 6997 ft | 177 kts | 164° |
| 2026-04-30 03:39 | -27.93043 | 114.36659 | 6997 ft | 177 kts | 164° |
| 2026-04-30 03:39 | -27.94219 | 114.37121 | 6999 ft | 178 kts | 164° |
| 2026-04-30 03:39 | -27.95403 | 114.37584 | 7008 ft | 178 kts | 164° |
| 2026-04-30 03:39 | -27.96581 | 114.38045 | 7007 ft | 178 kts | 165° |
| 2026-04-30 03:40 | -27.97769 | 114.38509 | 7003 ft | 178 kts | 165° |
| 2026-04-30 03:40 | -27.98949 | 114.38972 | 7003 ft | 178 kts | 164° |
| 2026-04-30 03:40 | -28.00133 | 114.39437 | 7001 ft | 177 kts | 164° |
| 2026-04-30 03:40 | -28.01306 | 114.39898 | 7003 ft | 177 kts | 165° |
| 2026-04-30 03:41 | -28.02487 | 114.40360 | 6999 ft | 177 kts | 165° |
| 2026-04-30 03:41 | -28.03662 | 114.40821 | 7005 ft | 177 kts | 164° |
| 2026-04-30 03:41 | -28.04837 | 114.41283 | 7003 ft | 177 kts | 164° |
| 2026-04-30 03:41 | -28.06015 | 114.41745 | 7002 ft | 177 kts | 165° |
| 2026-04-30 03:42 | -28.07186 | 114.42203 | 6995 ft | 177 kts | 164° |
| 2026-04-30 03:42 | -28.08359 | 114.42664 | 7006 ft | 177 kts | 164° |
| 2026-04-30 03:42 | -28.09528 | 114.43122 | 7005 ft | 177 kts | 164° |
| 2026-04-30 03:42 | -28.10708 | 114.43585 | 7001 ft | 177 kts | 164° |
| 2026-04-30 03:43 | -28.11880 | 114.44045 | 6999 ft | 177 kts | 164° |
| 2026-04-30 03:43 | -28.13057 | 114.44508 | 6994 ft | 177 kts | 164° |
| 2026-04-30 03:43 | -28.14225 | 114.44967 | 7002 ft | 177 kts | 165° |
| 2026-04-30 03:43 | -28.15393 | 114.45427 | 7011 ft | 177 kts | 165° |
| 2026-04-30 03:44 | -28.16568 | 114.45888 | 7002 ft | 177 kts | 164° |
| 2026-04-30 03:44 | -28.17736 | 114.46345 | 7003 ft | 176 kts | 165° |
| 2026-04-30 03:44 | -28.18910 | 114.46808 | 6996 ft | 176 kts | 165° |
| 2026-04-30 03:44 | -28.20067 | 114.47263 | 6994 ft | 176 kts | 164° |
| 2026-04-30 03:45 | -28.21237 | 114.47724 | 7000 ft | 176 kts | 164° |
| 2026-04-30 03:45 | -28.22400 | 114.48183 | 6997 ft | 176 kts | 164° |
| 2026-04-30 03:45 | -28.23565 | 114.48642 | 6998 ft | 176 kts | 164° |
| 2026-04-30 03:45 | -28.24726 | 114.49099 | 7000 ft | 176 kts | 164° |
| 2026-04-30 03:46 | -28.25896 | 114.49561 | 6997 ft | 176 kts | 164° |
| 2026-04-30 03:46 | -28.27071 | 114.50023 | 6999 ft | 176 kts | 164° |
| 2026-04-30 03:46 | -28.28236 | 114.50483 | 6997 ft | 176 kts | 164° |
| 2026-04-30 03:46 | -28.29411 | 114.50946 | 6996 ft | 176 kts | 164° |
| 2026-04-30 03:47 | -28.30577 | 114.51406 | 6998 ft | 177 kts | 164° |
| 2026-04-30 03:47 | -28.31756 | 114.51871 | 6995 ft | 176 kts | 165° |
| 2026-04-30 03:47 | -28.32927 | 114.52333 | 6995 ft | 176 kts | 164° |
| 2026-04-30 03:47 | -28.34097 | 114.52794 | 6999 ft | 176 kts | 164° |
| 2026-04-30 03:48 | -28.35269 | 114.53257 | 6999 ft | 176 kts | 164° |
| 2026-04-30 03:48 | -28.36436 | 114.53717 | 6996 ft | 176 kts | 165° |
| 2026-04-30 03:48 | -28.37607 | 114.54179 | 7000 ft | 176 kts | 165° |
| 2026-04-30 03:48 | -28.38769 | 114.54638 | 7000 ft | 176 kts | 164° |
| 2026-04-30 03:49 | -28.39945 | 114.55103 | 6997 ft | 176 kts | 164° |
| 2026-04-30 03:49 | -28.41106 | 114.55562 | 6999 ft | 176 kts | 164° |
| 2026-04-30 03:49 | -28.42275 | 114.56024 | 6993 ft | 176 kts | 164° |
| 2026-04-30 03:49 | -28.43438 | 114.56483 | 6998 ft | 176 kts | 164° |
| 2026-04-30 03:50 | -28.44604 | 114.56945 | 7000 ft | 176 kts | 164° |
| 2026-04-30 03:50 | -28.45772 | 114.57407 | 7000 ft | 176 kts | 164° |
| 2026-04-30 03:50 | -28.46935 | 114.57867 | 6998 ft | 175 kts | 164° |
| 2026-04-30 03:50 | -28.48098 | 114.58327 | 6994 ft | 175 kts | 164° |
| 2026-04-30 03:51 | -28.49251 | 114.58783 | 6993 ft | 175 kts | 164° |
| 2026-04-30 03:51 | -28.50409 | 114.59241 | 6996 ft | 175 kts | 164° |
| 2026-04-30 03:51 | -28.51560 | 114.59697 | 6997 ft | 175 kts | 164° |
| 2026-04-30 03:51 | -28.52722 | 114.60158 | 6986 ft | 175 kts | 165° |
| 2026-04-30 03:52 | -28.53876 | 114.60614 | 6991 ft | 175 kts | 165° |
| 2026-04-30 03:52 | -28.55037 | 114.61074 | 6994 ft | 175 kts | 165° |
| 2026-04-30 03:52 | -28.56193 | 114.61533 | 6997 ft | 175 kts | 164° |
| 2026-04-30 03:52 | -28.57355 | 114.61993 | 6994 ft | 175 kts | 164° |
| 2026-04-30 03:53 | -28.58513 | 114.62453 | 6994 ft | 175 kts | 164° |
| 2026-04-30 03:53 | -28.59667 | 114.62910 | 6988 ft | 175 kts | 164° |
| 2026-04-30 03:53 | -28.60824 | 114.63369 | 6992 ft | 175 kts | 164° |
| 2026-04-30 03:53 | -28.61975 | 114.63826 | 6995 ft | 175 kts | 164° |
| 2026-04-30 03:54 | -28.63133 | 114.64285 | 6995 ft | 175 kts | 164° |
| 2026-04-30 03:54 | -28.64282 | 114.64741 | 6994 ft | 174 kts | 164° |
| 2026-04-30 03:54 | -28.65436 | 114.65200 | 6991 ft | 174 kts | 163° |
| 2026-04-30 03:54 | -28.66581 | 114.65655 | 6993 ft | 174 kts | 163° |
| 2026-04-30 03:55 | -28.67622 | 114.66068 | 6999 ft | 173 kts | 163° |
| 2026-04-30 03:55 | -28.68771 | 114.66525 | 6997 ft | 173 kts | 163° |
| 2026-04-30 03:55 | -28.69908 | 114.66977 | 7001 ft | 173 kts | 163° |
| 2026-04-30 03:55 | -28.71050 | 114.67430 | 6999 ft | 172 kts | 164° |
| 2026-04-30 03:56 | -28.72192 | 114.67884 | 7004 ft | 172 kts | 163° |
| 2026-04-30 03:56 | -28.73335 | 114.68339 | 7008 ft | 173 kts | 163° |
| 2026-04-30 03:56 | -28.74479 | 114.68794 | 7008 ft | 173 kts | 163° |
| 2026-04-30 03:56 | -28.75624 | 114.69249 | 7006 ft | 174 kts | 163° |
| 2026-04-30 03:57 | -28.76772 | 114.69706 | 7006 ft | 174 kts | 163° |
| 2026-04-30 03:57 | -28.77921 | 114.70164 | 7004 ft | 174 kts | 163° |
| 2026-04-30 03:57 | -28.79081 | 114.70586 | 6998 ft | 173 kts | 171° |
| 2026-04-30 03:57 | -28.80263 | 114.70866 | 7000 ft | 172 kts | 171° |
| 2026-04-30 03:58 | -28.81453 | 114.71142 | 6999 ft | 172 kts | 172° |
| 2026-04-30 03:58 | -28.82634 | 114.71412 | 6998 ft | 172 kts | 172° |
| 2026-04-30 03:58 | -28.83818 | 114.71681 | 6999 ft | 172 kts | 171° |
| 2026-04-30 03:58 | -28.85005 | 114.71950 | 7000 ft | 172 kts | 172° |
| 2026-04-30 03:59 | -28.86186 | 114.72217 | 6996 ft | 172 kts | 172° |
| 2026-04-30 03:59 | -28.87374 | 114.72485 | 6997 ft | 172 kts | 172° |
| 2026-04-30 03:59 | -28.88551 | 114.72750 | 6997 ft | 172 kts | 172° |
| 2026-04-30 03:59 | -28.89743 | 114.73019 | 6997 ft | 172 kts | 172° |
| 2026-04-30 04:00 | -28.90927 | 114.73286 | 6995 ft | 172 kts | 172° |
| 2026-04-30 04:00 | -28.92108 | 114.73552 | 6994 ft | 172 kts | 172° |
| 2026-04-30 04:00 | -28.93290 | 114.73819 | 6989 ft | 172 kts | 171° |
| 2026-04-30 04:00 | -28.94472 | 114.74085 | 6989 ft | 172 kts | 172° |
| 2026-04-30 04:01 | -28.95657 | 114.74353 | 6988 ft | 172 kts | 172° |
| 2026-04-30 04:01 | -28.96836 | 114.74619 | 6987 ft | 172 kts | 171° |
| 2026-04-30 04:01 | -28.98020 | 114.74886 | 6985 ft | 172 kts | 172° |
| 2026-04-30 04:01 | -28.99197 | 114.75152 | 6989 ft | 172 kts | 171° |
| 2026-04-30 04:02 | -29.00384 | 114.75420 | 6990 ft | 172 kts | 172° |
| 2026-04-30 04:02 | -29.01559 | 114.75685 | 6987 ft | 171 kts | 172° |
| 2026-04-30 04:02 | -29.02749 | 114.75954 | 6988 ft | 171 kts | 171° |
| 2026-04-30 04:02 | -29.03929 | 114.76221 | 6982 ft | 171 kts | 172° |
| 2026-04-30 04:03 | -29.05106 | 114.76487 | 6986 ft | 171 kts | 172° |
| 2026-04-30 04:03 | -29.06282 | 114.76753 | 6986 ft | 171 kts | 172° |
| 2026-04-30 04:03 | -29.07458 | 114.77018 | 6984 ft | 171 kts | 172° |
| 2026-04-30 04:03 | -29.08635 | 114.77284 | 6983 ft | 171 kts | 172° |
| 2026-04-30 04:04 | -29.09806 | 114.77549 | 6986 ft | 171 kts | 171° |
| 2026-04-30 04:04 | -29.10984 | 114.77816 | 6988 ft | 171 kts | 172° |
| 2026-04-30 04:04 | -29.12152 | 114.78080 | 6988 ft | 171 kts | 172° |
| 2026-04-30 04:04 | -29.13330 | 114.78347 | 6989 ft | 171 kts | 172° |
| 2026-04-30 04:05 | -29.14505 | 114.78613 | 6991 ft | 171 kts | 172° |
| 2026-04-30 04:05 | -29.15681 | 114.78879 | 6992 ft | 170 kts | 172° |
| 2026-04-30 04:05 | -29.16852 | 114.79144 | 6990 ft | 170 kts | 172° |
| 2026-04-30 04:05 | -29.18029 | 114.79411 | 6986 ft | 170 kts | 171° |
| 2026-04-30 04:06 | -29.19203 | 114.79677 | 6987 ft | 170 kts | 172° |
| 2026-04-30 04:06 | -29.20373 | 114.79942 | 6985 ft | 170 kts | 172° |
| 2026-04-30 04:06 | -29.21545 | 114.80208 | 6984 ft | 170 kts | 172° |
| 2026-04-30 04:06 | -29.22718 | 114.80474 | 6982 ft | 170 kts | 172° |
| 2026-04-30 04:07 | -29.23898 | 114.80742 | 6978 ft | 170 kts | 172° |
| 2026-04-30 04:07 | -29.25066 | 114.81007 | 6983 ft | 170 kts | 172° |
| 2026-04-30 04:07 | -29.26235 | 114.81272 | 6982 ft | 170 kts | 172° |
| 2026-04-30 04:08 | -29.28576 | 114.81803 | 6986 ft | 170 kts | 172° |
| 2026-04-30 04:08 | -29.29745 | 114.82069 | 6985 ft | 170 kts | 172° |
| 2026-04-30 04:08 | -29.30921 | 114.82336 | 6984 ft | 170 kts | 171° |
| 2026-04-30 04:08 | -29.32090 | 114.82602 | 6985 ft | 170 kts | 172° |
| 2026-04-30 04:09 | -29.33265 | 114.82869 | 6982 ft | 170 kts | 172° |
| 2026-04-30 04:09 | -29.34438 | 114.83135 | 6983 ft | 171 kts | 172° |
| 2026-04-30 04:09 | -29.35612 | 114.83402 | 6983 ft | 171 kts | 172° |
| 2026-04-30 04:09 | -29.36785 | 114.83669 | 6983 ft | 171 kts | 172° |
| 2026-04-30 04:10 | -29.37956 | 114.83935 | 6983 ft | 171 kts | 172° |
| 2026-04-30 04:10 | -29.39130 | 114.84202 | 6984 ft | 170 kts | 172° |
| 2026-04-30 04:10 | -29.40296 | 114.84468 | 6990 ft | 170 kts | 172° |
| 2026-04-30 04:10 | -29.41473 | 114.84736 | 6985 ft | 170 kts | 172° |
| 2026-04-30 04:11 | -29.42637 | 114.85001 | 6986 ft | 170 kts | 172° |
| 2026-04-30 04:11 | -29.43808 | 114.85268 | 6985 ft | 170 kts | 172° |
| 2026-04-30 04:11 | -29.44976 | 114.85534 | 6985 ft | 170 kts | 172° |
| 2026-04-30 04:11 | -29.46147 | 114.85801 | 6986 ft | 170 kts | 172° |
| 2026-04-30 04:12 | -29.47312 | 114.86066 | 6981 ft | 170 kts | 172° |
| 2026-04-30 04:12 | -29.48478 | 114.86332 | 6983 ft | 170 kts | 171° |
| 2026-04-30 04:12 | -29.49644 | 114.86597 | 6985 ft | 170 kts | 172° |
| 2026-04-30 04:12 | -29.50821 | 114.86866 | 6983 ft | 170 kts | 171° |
| 2026-04-30 04:13 | -29.51995 | 114.87134 | 6982 ft | 170 kts | 172° |
| 2026-04-30 04:13 | -29.53163 | 114.87401 | 6982 ft | 170 kts | 171° |
| 2026-04-30 04:13 | -29.54339 | 114.87669 | 6981 ft | 170 kts | 172° |
| 2026-04-30 04:13 | -29.55503 | 114.87935 | 6978 ft | 170 kts | 172° |
| 2026-04-30 04:14 | -29.56678 | 114.88204 | 6977 ft | 170 kts | 172° |
| 2026-04-30 04:14 | -29.57841 | 114.88469 | 6974 ft | 170 kts | 172° |
| 2026-04-30 04:14 | -29.59018 | 114.88738 | 6979 ft | 170 kts | 172° |
| 2026-04-30 04:14 | -29.60181 | 114.89003 | 6986 ft | 169 kts | 172° |
| 2026-04-30 04:15 | -29.61350 | 114.89270 | 6987 ft | 170 kts | 172° |
| 2026-04-30 04:15 | -29.62527 | 114.89539 | 6832 ft | 179 kts | 172° |
| 2026-04-30 04:15 | -29.63790 | 114.89828 | 6567 ft | 187 kts | 171° |
| 2026-04-30 04:15 | -29.65097 | 114.90126 | 6300 ft | 191 kts | 171° |
| 2026-04-30 04:16 | -29.66417 | 114.90429 | 6034 ft | 193 kts | 171° |
| 2026-04-30 04:16 | -29.67751 | 114.90734 | 5767 ft | 194 kts | 171° |
| 2026-04-30 04:16 | -29.69073 | 114.91037 | 5497 ft | 193 kts | 171° |
| 2026-04-30 04:16 | -29.70410 | 114.91342 | 5223 ft | 193 kts | 171° |
| 2026-04-30 04:17 | -29.71728 | 114.91644 | 4953 ft | 192 kts | 170° |
| 2026-04-30 04:17 | -29.73042 | 114.91945 | 4685 ft | 190 kts | 170° |
| 2026-04-30 04:17 | -29.74339 | 114.92243 | 4411 ft | 189 kts | 170° |
| 2026-04-30 04:17 | -29.75630 | 114.92539 | 4137 ft | 187 kts | 170° |
| 2026-04-30 04:18 | -29.76908 | 114.92832 | 3883 ft | 185 kts | 169° |
| 2026-04-30 04:18 | -29.78141 | 114.93115 | 3817 ft | 176 kts | 170° |
| 2026-04-30 04:18 | -29.79333 | 114.93389 | 3741 ft | 170 kts | 170° |
| 2026-04-30 04:18 | -29.80481 | 114.93652 | 3668 ft | 165 kts | 170° |
| 2026-04-30 04:19 | -29.81606 | 114.93914 | 3603 ft | 163 kts | 170° |
| 2026-04-30 04:19 | -29.82722 | 114.94164 | 3542 ft | 162 kts | 171° |
| 2026-04-30 04:19 | -29.83832 | 114.94424 | 3477 ft | 162 kts | 169° |
| 2026-04-30 04:19 | -29.84934 | 114.94695 | 3420 ft | 161 kts | 169° |
| 2026-04-30 04:20 | -29.86037 | 114.94962 | 3360 ft | 161 kts | 169° |
| 2026-04-30 04:20 | -29.87137 | 114.95229 | 3297 ft | 161 kts | 169° |
| 2026-04-30 04:20 | -29.88235 | 114.95493 | 3237 ft | 160 kts | 169° |
| 2026-04-30 04:20 | -29.89225 | 114.95730 | 3182 ft | 160 kts | 169° |
| 2026-04-30 04:21 | -29.90311 | 114.95991 | 3124 ft | 159 kts | 169° |
| 2026-04-30 04:21 | -29.91403 | 114.96251 | 3064 ft | 159 kts | 169° |
| 2026-04-30 04:21 | -29.92491 | 114.96510 | 3004 ft | 159 kts | 169° |
| 2026-04-30 04:21 | -29.93574 | 114.96769 | 2944 ft | 158 kts | 169° |
| 2026-04-30 04:22 | -29.94655 | 114.97028 | 2882 ft | 158 kts | 169° |
| 2026-04-30 04:22 | -29.95731 | 114.97282 | 2822 ft | 157 kts | 169° |
| 2026-04-30 04:22 | -29.96804 | 114.97535 | 2760 ft | 157 kts | 169° |
| 2026-04-30 04:22 | -29.97876 | 114.97784 | 2702 ft | 156 kts | 169° |
| 2026-04-30 04:23 | -29.98944 | 114.98033 | 2647 ft | 156 kts | 169° |
| 2026-04-30 04:23 | -30.00013 | 114.98276 | 2591 ft | 156 kts | 168° |
| 2026-04-30 04:23 | -30.01037 | 114.98711 | 2532 ft | 157 kts | 156° |
| 2026-04-30 04:23 | -30.01988 | 114.99339 | 2475 ft | 157 kts | 151° |
| 2026-04-30 04:24 | -30.02934 | 114.99985 | 2418 ft | 158 kts | 151° |
| 2026-04-30 04:24 | -30.03881 | 115.00635 | 2361 ft | 158 kts | 151° |
| 2026-04-30 04:24 | -30.04825 | 115.01285 | 2309 ft | 158 kts | 151° |
| 2026-04-30 04:24 | -30.05771 | 115.01936 | 2254 ft | 158 kts | 151° |
| 2026-04-30 04:25 | -30.06748 | 115.02501 | 2198 ft | 156 kts | 156° |
| 2026-04-30 04:25 | -30.07731 | 115.03050 | 2140 ft | 156 kts | 156° |
| 2026-04-30 04:25 | -30.08709 | 115.03599 | 2085 ft | 156 kts | 156° |
| 2026-04-30 04:25 | -30.09685 | 115.04154 | 2033 ft | 156 kts | 156° |
| 2026-04-30 04:26 | -30.10662 | 115.04707 | 1981 ft | 155 kts | 156° |
| 2026-04-30 04:26 | -30.11637 | 115.05256 | 1929 ft | 156 kts | 156° |
| 2026-04-30 04:26 | -30.12615 | 115.05808 | 1878 ft | 156 kts | 156° |
| 2026-04-30 04:26 | -30.13591 | 115.06359 | 1822 ft | 155 kts | 156° |
| 2026-04-30 04:27 | -30.14569 | 115.06907 | 1774 ft | 156 kts | 156° |
| 2026-04-30 04:27 | -30.15578 | 115.07356 | 1721 ft | 155 kts | 163° |
| 2026-04-30 04:27 | -30.16607 | 115.07742 | 1670 ft | 156 kts | 163° |
| 2026-04-30 04:27 | -30.17651 | 115.08133 | 1616 ft | 158 kts | 163° |
| 2026-04-30 04:28 | -30.18707 | 115.08537 | 1565 ft | 160 kts | 163° |
| 2026-04-30 04:28 | -30.19788 | 115.08848 | 1506 ft | 160 kts | 176° |
| 2026-04-30 04:28 | -30.20828 | 115.08441 | 1446 ft | 161 kts | 212° |
| 2026-04-30 04:28 | -30.21744 | 115.07683 | 1398 ft | 161 kts | 213° |
| 2026-04-30 04:29 | -30.22660 | 115.06921 | 1338 ft | 162 kts | 213° |
| 2026-04-30 04:29 | -30.23623 | 115.06263 | 1285 ft | 159 kts | 197° |
| 2026-04-30 04:29 | -30.24683 | 115.05915 | 1224 ft | 155 kts | 194° |
| 2026-04-30 04:29 | -30.25640 | 115.05616 | 1150 ft | 127 kts | 194° |
| 2026-04-30 04:30 | -30.26418 | 115.05367 | 1052 ft | 110 kts | 194° |
| 2026-04-30 04:30 | -30.27139 | 115.05130 | 1000 ft | 103 kts | 194° |
| 2026-04-30 04:30 | -30.27793 | 115.04914 | 996 ft | 92 kts | 194° |
| 2026-04-30 04:30 | -30.28453 | 115.04689 | 1015 ft | 109 kts | 194° |
| 2026-04-30 04:31 | -30.29246 | 115.04422 | 1018 ft | 126 kts | 194° |
| 2026-04-30 04:31 | -30.30133 | 115.04253 | 1004 ft | 129 kts | 171° |
| 2026-04-30 04:31 | -30.30825 | 115.04795 | 997 ft | 119 kts | 126° |
| 2026-04-30 04:31 | -30.31074 | 115.05668 | 993 ft | 108 kts | 111° |
| 2026-04-30 04:32 | -30.30975 | 115.06486 | 982 ft | 110 kts | 49° |
| 2026-04-30 04:32 | -30.30278 | 115.06802 | 1008 ft | 107 kts | 24° |
| 2026-04-30 04:32 | -30.29597 | 115.07107 | 998 ft | 101 kts | 21° |
| 2026-04-30 04:32 | -30.28923 | 115.07367 | 1008 ft | 104 kts | 16° |
| 2026-04-30 04:33 | -30.28200 | 115.07561 | 1046 ft | 104 kts | 4° |
| 2026-04-30 04:33 | -30.27697 | 115.07151 | 909 ft | 88 kts | 272° |
| 2026-04-30 04:33 | -30.27796 | 115.06535 | 595 ft | 79 kts | 200° |
| 2026-04-30 04:33 | -30.28296 | 115.06369 | 394 ft | 70 kts | 197° |
| 2026-04-30 04:34 | -30.28748 | 115.06185 | 280 ft | 67 kts | 197° |
| 2026-04-30 04:34 | -30.29194 | 115.05998 | 166 ft | 68 kts | 197° |
| 2026-04-30 04:34 | -30.29641 | 115.05816 | 62 ft | 68 kts | 198° |
| 2026-04-30 04:34 | -30.30007 | 115.05661 | 18 ft | 26 kts | 200° |
| 2026-04-30 04:35 | -30.30046 | 115.05629 | 18 ft | 5 kts | 342° |
| 2026-04-30 04:35 | -30.30023 | 115.05597 | 18 ft | 7 kts | 303° |
| 2026-04-30 04:35 | -30.30019 | 115.05565 | 17 ft | 1 kts | 159° |
| 2026-04-30 04:35 | -30.30020 | 115.05566 | 17 ft | 0 kts | 108° |